createdAt,value
2022-08-05T00:01:49.108Z,3.97
2022-08-05T00:04:18.482Z,3.42
2022-08-05T00:06:51.980Z,3.55
2022-08-05T00:09:20.883Z,3.25
2022-08-05T00:11:55.880Z,3.22
2022-08-05T00:14:31.481Z,3.50
2022-08-05T00:17:01.748Z,3.20
2022-08-05T00:19:33.274Z,3.65
2022-08-05T00:22:03.000Z,3.35
2022-08-05T00:24:34.038Z,3.50
2022-08-05T00:27:04.628Z,3.40
2022-08-05T00:29:39.022Z,3.63
2022-08-05T00:32:15.315Z,3.35
2022-08-05T00:35:03.791Z,3.28
2022-08-05T00:37:35.824Z,3.58
2022-08-05T00:40:28.131Z,3.10
2022-08-05T00:42:59.791Z,3.40
2022-08-05T00:45:42.977Z,3.60
2022-08-05T00:48:15.781Z,3.53
2022-08-05T00:50:46.861Z,3.55
2022-08-05T00:53:59.933Z,3.90
2022-08-05T00:56:05.761Z,3.65
2022-08-05T00:58:37.259Z,3.53
2022-08-05T01:01:09.041Z,3.67
2022-08-05T01:03:40.086Z,3.65
2022-08-05T01:06:11.227Z,3.70
2022-08-05T01:08:44.454Z,3.97
2022-08-05T01:11:22.204Z,3.75
2022-08-05T01:14:08.434Z,3.90
2022-08-05T01:16:46.963Z,3.70
2022-08-05T01:20:01.764Z,3.63
2022-08-05T01:22:34.114Z,3.80
2022-08-05T01:25:41.063Z,4.00
2022-08-05T01:28:28.863Z,3.83
2022-08-05T01:31:03.463Z,3.33
2022-08-05T01:33:36.620Z,3.63
2022-08-05T01:36:12.896Z,3.90
2022-08-05T01:38:48.593Z,3.90
2022-08-05T01:41:21.975Z,3.78
2022-08-05T01:43:53.425Z,3.88
2022-08-05T01:46:41.351Z,3.40
2022-08-05T01:49:23.694Z,3.50
2022-08-05T01:51:59.018Z,3.50
2022-08-05T01:54:34.429Z,3.92
2022-08-05T01:58:09.366Z,3.75
2022-08-05T02:00:11.852Z,3.80
2022-08-05T02:02:51.222Z,3.80
2022-08-05T02:05:28.745Z,3.50
2022-08-05T02:07:59.985Z,3.58
2022-08-05T02:10:34.932Z,3.80
2022-08-05T02:13:16.050Z,3.88
2022-08-05T02:15:50.979Z,3.70
2022-08-05T02:18:33.084Z,3.75
2022-08-05T02:21:15.169Z,3.88
2022-08-05T02:23:46.203Z,4.30
2022-08-05T02:26:20.616Z,3.95
2022-08-05T02:28:51.468Z,4.22
2022-08-05T02:31:28.442Z,4.70
2022-08-05T02:34:06.365Z,4.07
2022-08-05T02:36:43.690Z,4.63
2022-08-05T02:39:14.179Z,4.50
2022-08-05T02:42:00.797Z,4.00
2022-08-05T02:44:31.812Z,4.07
2022-08-05T02:47:02.797Z,3.87
2022-08-05T02:49:40.518Z,4.00
2022-08-05T02:52:13.710Z,4.10
2022-08-05T02:55:01.705Z,3.85
2022-08-05T02:58:11.880Z,3.90
2022-08-05T03:00:23.218Z,3.90
2022-08-05T03:02:58.536Z,3.80
2022-08-05T03:06:54.058Z,4.20
2022-08-05T03:08:16.677Z,4.40
2022-08-05T03:11:53.141Z,3.78
2022-08-05T03:13:51.630Z,3.67
2022-08-05T03:16:31.803Z,4.20
2022-08-05T03:19:12.502Z,4.20
2022-08-05T03:21:49.309Z,4.07
2022-08-05T03:24:26.881Z,4.10
2022-08-05T03:26:59.781Z,4.43
2022-08-05T03:29:44.613Z,4.20
2022-08-05T03:32:19.595Z,3.78
2022-08-05T03:34:51.034Z,3.58
2022-08-05T03:37:21.315Z,3.90
2022-08-05T03:39:58.746Z,3.90
2022-08-05T03:42:29.210Z,3.83
2022-08-05T03:45:01.859Z,3.65
2022-08-05T03:47:49.978Z,3.75
2022-08-05T03:50:21.416Z,3.77
2022-08-05T03:55:51.249Z,4.00
2022-08-05T03:56:10.338Z,4.40
2022-08-05T03:58:41.690Z,3.90
2022-08-05T04:01:13.051Z,3.92
2022-08-05T04:04:10.511Z,3.63
2022-08-05T04:06:36.503Z,3.70
2022-08-05T04:09:06.398Z,4.05
2022-08-05T04:11:47.098Z,3.78
2022-08-05T04:14:18.301Z,3.67
2022-08-05T04:16:47.155Z,3.30
2022-08-05T04:19:16.091Z,3.60
2022-08-05T04:22:08.393Z,3.40
2022-08-05T04:24:36.373Z,3.08
2022-08-05T04:27:13.173Z,3.28
2022-08-05T04:29:42.043Z,3.40
2022-08-05T04:32:11.262Z,3.00
2022-08-05T04:34:42.837Z,3.10
2022-08-05T04:37:13.564Z,3.20
2022-08-05T04:39:42.020Z,3.33
2022-08-05T04:42:11.019Z,3.05
2022-08-05T04:44:40.170Z,2.92
2022-08-05T04:47:10.344Z,2.88
2022-08-05T04:50:02.154Z,3.10
2022-08-05T04:52:33.431Z,3.00
2022-08-05T04:55:13.906Z,3.30
2022-08-05T04:57:47.990Z,3.67
2022-08-05T05:00:23.550Z,3.63
2022-08-05T05:02:53.215Z,3.60
2022-08-05T05:05:28.918Z,3.70
2022-08-05T05:08:03.687Z,3.53
2022-08-05T05:10:33.922Z,3.13
2022-08-05T05:13:04.064Z,2.97
2022-08-05T05:15:56.739Z,3.13
2022-08-05T05:18:28.459Z,3.20
2022-08-05T05:21:01.846Z,3.28
2022-08-05T05:23:39.256Z,3.28
2022-08-05T05:26:28.541Z,3.58
2022-08-05T05:29:14.799Z,3.47
2022-08-05T05:31:46.400Z,3.00
2022-08-05T05:34:15.854Z,4.00
2022-08-05T05:36:47.205Z,4.25
2022-08-05T05:39:21.321Z,4.00
2022-08-05T05:41:54.256Z,3.75
2022-08-05T05:44:36.678Z,3.35
2022-08-05T05:47:13.278Z,3.97
2022-08-05T05:50:01.453Z,3.38
2022-08-05T05:52:33.187Z,3.63
2022-08-05T05:55:13.526Z,3.80
2022-08-05T05:57:52.539Z,3.72
2022-08-05T06:00:31.358Z,3.40
2022-08-05T06:03:03.315Z,3.22
2022-08-05T06:05:54.270Z,3.50
2022-08-05T06:08:32.539Z,3.28
2022-08-05T06:11:03.119Z,3.53
2022-08-05T06:13:40.821Z,3.35
2022-08-05T06:16:28.285Z,3.17
2022-08-05T06:19:02.024Z,3.20
2022-08-05T06:21:36.452Z,3.25
2022-08-05T06:24:07.669Z,3.30
2022-08-05T06:26:52.310Z,3.20
2022-08-05T06:29:43.241Z,3.20
2022-08-05T06:32:25.214Z,3.10
2022-08-05T06:34:56.165Z,3.00
2022-08-05T06:37:57.811Z,3.20
2022-08-05T06:40:18.278Z,3.45
2022-08-05T06:42:55.260Z,2.95
2022-08-05T06:46:04.236Z,3.33
2022-08-05T06:48:50.357Z,2.90
2022-08-05T06:51:01.396Z,3.00
2022-08-05T06:53:39.112Z,2.72
2022-08-05T06:56:16.314Z,2.80
2022-08-05T06:58:56.821Z,2.85
2022-08-05T07:01:31.942Z,3.10
2022-08-05T07:04:02.255Z,3.10
2022-08-05T07:06:31.990Z,3.15
2022-08-05T07:09:03.792Z,3.17
2022-08-05T07:11:37.305Z,2.72
2022-08-05T07:14:29.505Z,2.45
2022-08-05T07:18:09.382Z,2.35
2022-08-05T07:22:42.953Z,2.78
2022-08-05T07:25:54.103Z,2.78
2022-08-05T07:28:05.750Z,2.92
2022-08-05T07:30:40.197Z,2.45
2022-08-05T07:33:16.225Z,2.70
2022-08-05T07:36:04.594Z,2.50
2022-08-05T07:38:43.676Z,2.70
2022-08-05T07:42:08.969Z,2.92
2022-08-05T07:44:14.070Z,3.00
2022-08-05T07:46:50.161Z,2.85
2022-08-05T07:49:20.783Z,2.70
2022-08-05T07:51:54.344Z,2.63
2022-08-05T07:54:30.654Z,2.80
2022-08-05T07:57:14.627Z,2.75
2022-08-05T07:59:49.167Z,2.55
2022-08-05T08:02:19.073Z,2.83
2022-08-05T08:04:49.274Z,2.55
2022-08-05T08:07:22.740Z,2.47
2022-08-05T08:09:55.045Z,2.53
2022-08-05T08:12:37.350Z,2.90
2022-08-05T08:15:16.013Z,2.60
2022-08-05T08:17:52.375Z,3.10
2022-08-05T08:20:59.850Z,2.92
2022-08-05T08:24:03.779Z,2.80
2022-08-05T08:26:04.471Z,2.30
2022-08-05T08:28:42.437Z,2.90
2022-08-05T08:31:26.967Z,2.60
2022-08-05T08:33:58.643Z,2.70
2022-08-05T08:36:46.365Z,2.47
2022-08-05T08:39:20.406Z,2.60
2022-08-05T08:42:00.217Z,2.40
2022-08-05T08:45:17.684Z,2.70
2022-08-05T08:48:07.157Z,2.53
2022-08-05T08:50:52.047Z,2.42
2022-08-05T08:53:19.841Z,2.30
2022-08-05T08:56:03.440Z,2.40
2022-08-05T08:58:47.576Z,2.50
2022-08-05T09:01:19.958Z,2.67
2022-08-05T09:03:55.366Z,2.30
2022-08-05T09:06:31.892Z,2.40
2022-08-05T09:09:04.126Z,2.58
2022-08-05T09:11:51.525Z,2.35
2022-08-05T09:14:58.769Z,2.30
2022-08-05T09:17:16.092Z,2.20
2022-08-05T09:20:06.505Z,2.40
2022-08-05T09:23:10.038Z,2.60
2022-08-05T09:26:02.375Z,2.30
2022-08-05T09:28:35.049Z,2.28
2022-08-05T09:31:43.975Z,2.00
2022-08-05T09:34:00.450Z,2.10
2022-08-05T09:36:45.906Z,2.22
2022-08-05T09:39:45.424Z,2.65
2022-08-05T09:42:23.659Z,2.35
2022-08-05T09:45:17.692Z,2.50
2022-08-05T09:47:55.879Z,2.40
2022-08-05T09:50:37.788Z,2.40
2022-08-05T09:53:22.881Z,2.33
2022-08-05T09:56:04.896Z,2.30
2022-08-05T09:58:42.361Z,2.50
2022-08-05T10:01:22.679Z,2.20
2022-08-05T10:04:10.488Z,2.00
2022-08-05T10:06:49.819Z,2.55
2022-08-05T10:09:29.553Z,2.47
2022-08-05T10:12:30.338Z,2.30
2022-08-05T10:15:20.374Z,2.50
2022-08-05T10:18:08.134Z,2.58
2022-08-05T10:20:39.679Z,2.63
2022-08-05T10:23:21.767Z,2.35
2022-08-05T10:26:02.800Z,3.03
2022-08-05T10:28:33.497Z,3.10
2022-08-05T10:32:52.644Z,2.58
2022-08-05T10:33:54.457Z,2.38
2022-08-05T10:36:26.148Z,3.75
2022-08-05T10:39:05.252Z,2.80
2022-08-05T10:41:46.775Z,2.47
2022-08-05T10:44:21.426Z,4.30
2022-08-05T10:46:53.952Z,2.67
2022-08-05T10:49:26.859Z,2.30
2022-08-05T10:52:00.211Z,2.60
2022-08-05T10:54:56.850Z,3.38
2022-08-05T10:57:31.903Z,2.78
2022-08-05T11:00:20.202Z,2.78
2022-08-05T11:03:25.599Z,3.03
2022-08-05T11:06:06.248Z,2.90
2022-08-05T11:08:38.092Z,2.70
2022-08-05T11:11:42.075Z,2.55
2022-08-05T11:14:14.662Z,2.22
2022-08-05T11:16:56.773Z,2.50
2022-08-05T11:20:09.987Z,2.70
2022-08-05T11:22:42.345Z,2.50
2022-08-05T11:26:05.668Z,3.25
2022-08-05T11:28:46.861Z,2.70
2022-08-05T11:31:56.560Z,2.40
2022-08-05T11:34:15.111Z,2.53
2022-08-05T11:36:53.425Z,2.28
2022-08-05T11:40:00.688Z,2.40
2022-08-05T11:42:37.920Z,2.13
2022-08-05T11:45:14.491Z,2.20
2022-08-05T11:48:00.297Z,2.10
2022-08-05T11:50:38.768Z,2.17
2022-08-05T11:53:09.803Z,2.30
2022-08-05T11:55:39.235Z,2.10
2022-08-05T11:58:11.868Z,1.95
2022-08-05T12:00:44.425Z,2.10
2022-08-05T12:03:29.610Z,2.33
2022-08-05T12:06:05.873Z,1.90
2022-08-05T12:08:41.039Z,2.00
2022-08-05T12:11:21.819Z,1.90
2022-08-05T12:13:58.665Z,2.00
2022-08-05T12:16:38.423Z,1.80
2022-08-05T12:19:08.996Z,1.90
2022-08-05T12:21:47.114Z,1.80
2022-08-05T12:24:19.480Z,1.90
2022-08-05T12:26:50.688Z,2.10
2022-08-05T12:29:22.918Z,1.60
2022-08-05T12:31:54.543Z,2.00
2022-08-05T12:34:28.534Z,2.05
2022-08-05T12:37:04.909Z,1.70
2022-08-05T12:39:38.716Z,1.67
2022-08-05T12:42:19.122Z,1.90
2022-08-05T12:44:49.392Z,1.83
2022-08-05T12:47:30.621Z,1.80
2022-08-05T12:50:03.257Z,1.70
2022-08-05T12:52:41.699Z,1.65
2022-08-05T12:55:22.011Z,1.90
2022-08-05T12:58:48.312Z,2.10
2022-08-05T13:02:02.522Z,2.10
2022-08-05T13:03:42.233Z,2.10
2022-08-05T13:06:20.069Z,2.00
2022-08-05T13:08:52.386Z,2.00
2022-08-05T13:11:25.402Z,2.05
2022-08-05T13:14:24.716Z,2.10
2022-08-05T13:17:08.972Z,2.15
2022-08-05T13:19:51.000Z,2.00
2022-08-05T13:22:28.025Z,2.40
2022-08-05T13:25:05.822Z,2.00
2022-08-05T13:27:39.688Z,2.30
2022-08-05T13:30:34.167Z,2.50
2022-08-05T13:33:01.460Z,2.63
2022-08-05T13:35:47.022Z,2.20
2022-08-05T13:38:30.404Z,2.30
2022-08-05T13:41:01.835Z,2.50
2022-08-05T13:43:45.305Z,2.50
2022-08-05T13:46:43.712Z,2.20
2022-08-05T13:49:10.312Z,2.80
2022-08-05T13:51:46.318Z,2.60
2022-08-05T13:54:16.584Z,2.50
2022-08-05T13:56:50.843Z,2.97
2022-08-05T13:59:24.106Z,2.30
2022-08-05T14:01:57.754Z,2.15
2022-08-05T14:04:49.446Z,2.67
2022-08-05T14:07:25.728Z,2.90
2022-08-05T14:10:11.667Z,2.88
2022-08-05T14:12:42.833Z,2.50
2022-08-05T14:16:07.974Z,2.58
2022-08-05T14:18:17.359Z,3.28
2022-08-05T14:20:48.592Z,2.88
2022-08-05T14:23:23.448Z,2.95
2022-08-05T14:25:54.520Z,2.60
2022-08-05T14:28:29.146Z,3.25
2022-08-05T14:30:57.898Z,2.97
2022-08-05T14:33:26.762Z,3.08
2022-08-05T14:35:55.316Z,2.92
2022-08-05T14:38:31.787Z,3.03
2022-08-05T14:41:06.563Z,2.35
2022-08-05T14:43:57.619Z,2.92
2022-08-05T14:46:28.857Z,2.40
2022-08-05T14:49:06.356Z,2.70
2022-08-05T14:51:37.893Z,2.17
2022-08-05T14:54:28.350Z,2.60
2022-08-05T14:56:55.676Z,2.60
2022-08-05T14:59:29.418Z,2.67
2022-08-05T15:01:58.618Z,2.40
2022-08-05T15:04:29.074Z,2.70
2022-08-05T15:06:58.171Z,3.00
2022-08-05T15:09:52.562Z,2.90
2022-08-05T15:12:16.815Z,2.60
2022-08-05T15:14:50.110Z,2.78
2022-08-05T15:17:45.896Z,2.50
2022-08-05T15:20:18.677Z,2.50
2022-08-05T15:22:52.365Z,2.90
2022-08-05T15:25:50.954Z,2.70
2022-08-05T15:28:14.747Z,2.20
2022-08-05T15:30:46.503Z,2.80
2022-08-05T15:33:56.678Z,2.30
2022-08-05T15:36:04.937Z,2.40
2022-08-05T15:38:40.891Z,2.75
2022-08-05T15:41:22.839Z,2.67
2022-08-05T15:43:55.031Z,2.40
2022-08-05T15:46:25.884Z,2.70
2022-08-05T15:49:00.627Z,2.65
2022-08-05T15:52:03.724Z,2.58
2022-08-05T15:54:34.884Z,2.40
2022-08-05T15:57:07.669Z,2.40
2022-08-05T15:59:38.039Z,2.60
2022-08-05T16:02:14.883Z,2.65
2022-08-05T16:04:48.776Z,2.30
2022-08-05T16:07:17.331Z,2.60
2022-08-05T16:09:46.630Z,2.90
2022-08-05T16:12:15.593Z,2.70
2022-08-05T16:14:44.621Z,2.60
2022-08-05T16:17:14.736Z,2.40
2022-08-05T16:20:04.287Z,2.30
2022-08-05T16:22:34.290Z,2.22
2022-08-05T16:25:05.390Z,2.40
2022-08-05T16:27:59.969Z,2.30
2022-08-05T16:30:28.643Z,2.50
2022-08-05T16:32:59.852Z,2.60
2022-08-05T16:35:33.783Z,2.00
2022-08-05T16:38:23.732Z,2.30
2022-08-05T16:41:00.919Z,2.50
2022-08-05T16:43:32.419Z,2.10
2022-08-05T16:46:07.011Z,2.50
2022-08-05T16:48:43.060Z,2.40
2022-08-05T16:51:12.045Z,2.60
2022-08-05T16:54:03.362Z,2.20
2022-08-05T16:56:31.205Z,2.30
2022-08-05T16:59:00.927Z,2.53
2022-08-05T17:01:54.976Z,2.40
2022-08-05T17:04:28.114Z,2.65
2022-08-05T17:07:01.174Z,2.22
2022-08-05T17:09:38.796Z,2.20
2022-08-05T17:12:22.644Z,2.20
2022-08-05T17:15:09.405Z,2.30
2022-08-05T17:17:42.124Z,2.20
2022-08-05T17:20:14.849Z,2.70
2022-08-05T17:22:45.145Z,2.92
2022-08-05T17:25:33.543Z,2.30
2022-08-05T17:28:06.493Z,2.63
2022-08-05T17:30:50.807Z,2.20
2022-08-05T17:33:21.125Z,2.65
2022-08-05T17:36:07.661Z,2.55
2022-08-05T17:38:39.905Z,2.80
2022-08-05T17:41:11.724Z,2.40
2022-08-05T17:43:57.918Z,2.80
2022-08-05T17:46:26.881Z,2.60
2022-08-05T17:48:56.144Z,2.83
2022-08-05T17:51:28.015Z,2.80
2022-08-05T17:54:08.835Z,2.85
2022-08-05T17:56:38.335Z,3.00
2022-08-05T17:59:06.962Z,3.17
2022-08-05T18:01:49.475Z,2.70
2022-08-05T18:04:21.379Z,2.70
2022-08-05T18:06:54.895Z,2.65
2022-08-05T18:09:59.015Z,3.30
2022-08-05T18:12:22.261Z,3.00
2022-08-05T18:14:52.986Z,3.35
2022-08-05T18:17:58.668Z,3.10
2022-08-05T18:20:14.108Z,3.25
2022-08-05T18:22:54.753Z,3.15
2022-08-05T18:25:32.978Z,3.17
2022-08-05T18:28:04.687Z,4.32
2022-08-05T18:30:34.349Z,4.93
2022-08-05T18:33:03.108Z,5.00
2022-08-05T18:35:49.422Z,5.18
2022-08-05T18:38:26.070Z,5.63
2022-08-05T18:41:57.225Z,5.55
2022-08-05T18:43:49.107Z,5.47
2022-08-05T18:46:19.864Z,5.60
2022-08-05T18:48:52.248Z,5.40
2022-08-05T18:52:05.065Z,5.55
2022-08-05T18:54:31.284Z,5.80
2022-08-05T18:57:01.428Z,5.40
2022-08-05T18:59:42.841Z,5.40
2022-08-05T19:02:36.523Z,5.88
2022-08-05T19:06:05.512Z,5.90
2022-08-05T19:08:00.018Z,5.15
2022-08-05T19:10:30.639Z,5.07
2022-08-05T19:12:59.584Z,4.97
2022-08-05T19:15:57.845Z,4.80
2022-08-05T19:18:21.812Z,4.30
2022-08-05T19:20:52.495Z,4.05
2022-08-05T19:24:04.373Z,3.92
2022-08-05T19:26:12.073Z,4.20
2022-08-05T19:28:43.169Z,3.88
2022-08-05T19:31:18.050Z,3.88
2022-08-05T19:33:56.357Z,3.65
2022-08-05T19:36:26.557Z,3.67
2022-08-05T19:39:01.208Z,3.75
2022-08-05T19:42:06.460Z,4.03
2022-08-05T19:44:21.092Z,4.00
2022-08-05T19:46:50.536Z,4.20
2022-08-05T19:49:19.548Z,3.90
2022-08-05T19:52:05.917Z,3.80
2022-08-05T19:54:38.047Z,4.22
2022-08-05T19:57:10.099Z,4.20
2022-08-05T19:59:53.989Z,4.00
2022-08-05T20:02:32.674Z,4.40
2022-08-05T20:05:01.942Z,4.25
2022-08-05T20:07:46.567Z,4.15
2022-08-05T20:10:24.371Z,4.50
2022-08-05T20:12:55.619Z,4.53
2022-08-05T20:15:51.569Z,4.20
2022-08-05T20:18:32.613Z,3.50
2022-08-05T20:21:04.822Z,3.22
2022-08-05T20:23:39.929Z,3.22
2022-08-05T20:26:19.153Z,3.08
2022-08-05T20:28:51.022Z,3.00
2022-08-05T20:31:21.462Z,3.10
2022-08-05T20:33:51.948Z,3.28
2022-08-05T20:36:22.563Z,3.35
2022-08-05T20:38:54.546Z,3.03
2022-08-05T20:41:43.919Z,3.00
2022-08-05T20:44:29.238Z,2.88
2022-08-05T20:47:00.418Z,2.85
2022-08-05T20:49:29.799Z,2.70
2022-08-05T20:52:07.110Z,2.83
2022-08-05T20:54:42.705Z,2.75
2022-08-05T20:57:41.958Z,2.78
2022-08-05T21:00:41.452Z,2.83
2022-08-05T21:03:07.042Z,2.90
2022-08-05T21:05:38.336Z,2.45
2022-08-05T21:08:26.548Z,2.47
2022-08-05T21:11:09.831Z,2.40
2022-08-05T21:13:56.427Z,2.60
2022-08-05T21:16:30.040Z,2.72
2022-08-05T21:19:00.860Z,2.53
2022-08-05T21:21:39.487Z,2.65
2022-08-05T21:24:13.479Z,2.30
2022-08-05T21:26:53.418Z,2.60
2022-08-05T21:29:31.877Z,2.97
2022-08-05T21:32:03.647Z,2.38
2022-08-05T21:34:35.625Z,2.65
2022-08-05T21:37:08.428Z,2.30
2022-08-05T21:39:40.350Z,2.33
2022-08-05T21:42:30.686Z,2.42
2022-08-05T21:44:58.413Z,2.38
2022-08-05T21:47:55.101Z,2.50
2022-08-05T21:50:17.583Z,2.60
2022-08-05T21:52:47.389Z,2.33
2022-08-05T21:55:17.254Z,2.20
2022-08-05T21:57:46.508Z,2.30
2022-08-05T22:00:15.825Z,2.38
2022-08-05T22:02:46.111Z,2.70
2022-08-05T22:05:14.984Z,2.40
2022-08-05T22:07:58.794Z,2.20
2022-08-05T22:10:30.921Z,2.25
2022-08-05T22:14:06.050Z,2.13
2022-08-05T22:16:02.690Z,2.40
2022-08-05T22:18:38.988Z,2.22
2022-08-05T22:21:19.108Z,2.30
2022-08-05T22:24:08.957Z,1.90
2022-08-05T22:26:59.937Z,2.08
2022-08-05T22:29:30.874Z,2.15
2022-08-05T22:32:03.361Z,2.08
2022-08-05T22:34:33.731Z,1.92
2022-08-05T22:37:03.659Z,2.00
2022-08-05T22:39:34.742Z,2.00
2022-08-05T22:42:11.231Z,2.10
2022-08-05T22:44:48.431Z,1.90
2022-08-05T22:47:28.916Z,1.95
2022-08-05T22:50:23.156Z,2.03
2022-08-05T22:52:50.226Z,1.70
2022-08-05T22:55:21.507Z,1.90
2022-08-05T22:57:51.238Z,1.80
2022-08-05T23:00:21.487Z,1.90
2022-08-05T23:02:50.827Z,2.00
2022-08-05T23:05:22.019Z,1.80
2022-08-05T23:07:51.372Z,1.88
2022-08-05T23:10:23.424Z,1.90
2022-08-05T23:12:54.480Z,2.05
2022-08-05T23:15:27.005Z,1.80
2022-08-05T23:18:02.308Z,1.95
2022-08-05T23:20:37.509Z,1.80
2022-08-05T23:23:08.326Z,2.00
2022-08-05T23:25:54.639Z,1.88
2022-08-05T23:28:28.659Z,2.00
2022-08-05T23:31:14.829Z,2.03
2022-08-05T23:34:05.471Z,1.83
2022-08-05T23:36:39.587Z,1.95
2022-08-05T23:39:17.687Z,1.98
2022-08-05T23:42:00.974Z,1.83
2022-08-05T23:44:31.410Z,1.80
2022-08-05T23:47:02.485Z,2.00
2022-08-05T23:49:44.275Z,1.90
2022-08-05T23:52:29.388Z,1.90
2022-08-05T23:55:01.199Z,2.13
2022-08-05T23:57:30.264Z,1.90
